Aérodrome :
LOGIN :

S'inscrire | Disclaimer

   EN    FR    IT 

 










Légende :    VFR   VFR Marginal   IFR   IFR Intensif   IFR Très Intensif
Visi : 
Plafond : 
>= 8 km
>= 3000ft
5 à 8 km
1000 à 3000 ft
1500m à 5 km
500 à 1000 ft
800 à 1500m
200 à 500 ft
< 800m
< 200 ft
Symboles :   Orages  Brouillard  Fortes neiges  Fortes précipitations  Vent > 20 kt
SIGMETs :   Divers  Orages  Givrage  Turbulence  Onde Orograph.  Cendres Volcan.






- Altitude de l'aérodrome : 821 ft
- Code IATA : LYS


LFLL - Lyon St Exupéry / Satolas

DERNIER METAR :
  • 122130Z 15005KT CAVOK 28/11 Q1014 NOSIG

METARs EXPIRÉS :
  • 122100Z 13005KT CAVOK 28/11 Q1014 NOSIG
  • 122030Z 14005KT CAVOK 29/11 Q1014 NOSIG
  • 122000Z 14007KT CAVOK 29/11 Q1014 NOSIG
  • 121930Z 11007KT CAVOK 29/11 Q1014 NOSIG
  • 121900Z 10006KT CAVOK 29/11 Q1013 NOSIG

TAF TAF LFLL
Valide du 12 à 18h jusqu'au 14 à 00h UTC


121700Z 1218/1324 18008KT CAVOK
PROB30
TEMPO 1220/1306 22015G25KT -SHRA FEW080CB
PROB40
TEMPO 1312/1324 VRB20G35KT TSRA SCT070CB
PROB30
TEMPO 1312/1320 VRB30G45KT 2000 TSGR



MET'MAP, la Météo Aéronautique d'un coup d'oeil ! - Copyright ORBIFLY Décembre 2007 - Disclaimer

ORBIFLY MET'MAP TEAM :

Programmation & Développement : Alexandra Zaïnal
Sur une idée originale de : Baudouin d'Aumeries
Assistance à la programmation : Marc-Olivier Méhu
Soutien technique & logistique : Manuel Goepfert

Contact : metmap@orbifly.com




SOURCES & CREDITS :

   NOAA